Time;durP1;ratioP1;P1;durP2;ratioP2;P2;SDS_P1;SDS_P2;PMS_P1;PMS_P2;Temp;Humidity;BMP_temperature;BMP_pressure;BME280_temperature;BME280_humidity;BME280_pressure;Samples;Min_cycle;Max_cycle;Signal;HPM_P1;HPM_P2
2022/09/30 04:01:24;;;;;;;9.13;8.33;;;9.10;99.90;;;;;;5525520;23;20494;-63
2022/09/30 04:03:52;;;;;;;10.03;9.07;;;9.10;99.90;;;;;;4977467;28;20466;-63
2022/09/30 04:06:20;;;;;;;10.40;9.50;;;9.10;99.90;;;;;;4976138;28;20505;-63
2022/09/30 04:08:47;;;;;;;10.37;9.37;;;9.10;99.90;;;;;;4975709;28;20612;-63
2022/09/30 04:11:14;;;;;;;10.30;9.50;;;9.10;99.90;;;;;;4984725;28;20503;-63
2022/09/30 04:13:40;;;;;;;10.90;9.60;;;9.10;99.90;;;;;;4986803;28;20482;-63
2022/09/30 04:16:07;;;;;;;10.10;9.30;;;9.00;99.90;;;;;;4977167;28;20482;-63
2022/09/30 04:18:37;;;;;;;10.20;9.30;;;9.10;99.90;;;;;;4975929;28;20458;-62
2022/09/30 04:21:06;;;;;;;11.50;10.60;;;9.00;99.90;;;;;;4975678;28;20510;-63
2022/09/30 04:23:35;;;;;;;11.03;10.03;;;9.00;99.90;;;;;;4976691;28;20450;-63
2022/09/30 04:26:01;;;;;;;10.63;9.70;;;8.90;99.90;;;;;;4976436;28;20539;-63
2022/09/30 04:28:29;;;;;;;11.33;10.23;;;8.90;99.90;;;;;;4975607;28;20454;-63
2022/09/30 04:30:59;;;;;;;10.77;9.30;;;8.90;99.90;;;;;;4975494;28;20478;-63
2022/09/30 04:33:26;;;;;;;15.43;9.80;;;8.80;99.90;;;;;;4975440;28;20478;-63
2022/09/30 04:35:55;;;;;;;10.90;9.90;;;8.80;99.90;;;;;;4976191;28;20817;-63
2022/09/30 04:38:23;;;;;;;14.40;9.00;;;8.70;99.90;;;;;;4975475;28;20459;-63
2022/09/30 04:40:50;;;;;;;9.90;8.90;;;8.80;99.90;;;;;;4975112;28;20479;-62
2022/09/30 04:43:18;;;;;;;9.03;8.43;;;8.70;99.90;;;;;;4975603;28;20458;-63
2022/09/30 04:45:45;;;;;;;8.97;7.97;;;8.70;99.90;;;;;;4975421;28;20455;-63
2022/09/30 04:48:12;;;;;;;9.60;8.60;;;8.70;99.90;;;;;;4975400;28;20477;-63
2022/09/30 04:50:38;;;;;;;9.60;8.67;;;8.70;99.90;;;;;;4975313;28;20503;-63
2022/09/30 04:53:07;;;;;;;8.87;8.07;;;8.60;99.90;;;;;;4975070;28;20997;-62
2022/09/30 04:55:33;;;;;;;8.63;7.93;;;8.60;99.90;;;;;;4975235;28;20513;-62
2022/09/30 04:58:00;;;;;;;9.10;8.03;;;8.60;99.90;;;;;;4975499;28;20459;-63
2022/09/30 05:00:27;;;;;;;9.67;8.87;;;8.60;99.90;;;;;;4977007;28;20510;-63
2022/09/30 05:02:53;;;;;;;10.00;9.20;;;8.60;99.90;;;;;;4974807;28;20906;-61
2022/09/30 05:05:20;;;;;;;11.23;10.23;;;8.50;99.90;;;;;;4975096;28;20467;-62
2022/09/30 05:07:46;;;;;;;11.03;9.93;;;8.50;99.90;;;;;;4974998;28;20521;-62
2022/09/30 05:10:15;;;;;;;11.57;10.67;;;8.50;99.90;;;;;;4975496;28;20458;-62
2022/09/30 05:12:43;;;;;;;13.30;11.90;;;8.50;99.90;;;;;;4975069;28;20574;-63
2022/09/30 05:15:11;;;;;;;13.23;12.03;;;8.50;99.90;;;;;;4975082;28;20455;-62
2022/09/30 05:17:37;;;;;;;13.57;12.27;;;8.50;99.90;;;;;;4975287;28;20517;-62
2022/09/30 05:20:09;;;;;;;13.73;10.67;;;8.50;99.90;;;;;;4978673;28;20509;-63
2022/09/30 05:22:37;;;;;;;10.90;10.07;;;8.50;99.90;;;;;;4980103;28;20435;-63
2022/09/30 05:25:04;;;;;;;11.27;10.27;;;8.50;99.90;;;;;;4981421;28;20485;-63
2022/09/30 05:27:32;;;;;;;10.90;9.97;;;8.50;99.90;;;;;;4985525;28;20851;-63
2022/09/30 05:29:59;;;;;;;13.37;12.00;;;8.50;99.90;;;;;;4987183;28;20465;-63
2022/09/30 05:32:26;;;;;;;11.87;10.83;;;8.40;99.90;;;;;;4989496;28;20474;-63
2022/09/30 05:34:54;;;;;;;16.77;11.30;;;8.40;99.90;;;;;;4989578;28;20458;-63
2022/09/30 05:37:20;;;;;;;69.60;13.93;;;8.40;99.90;;;;;;4985190;28;20529;-62
2022/09/30 05:39:47;;;;;;;28.70;13.00;;;8.40;99.90;;;;;;4980085;28;20458;-64
2022/09/30 05:42:14;;;;;;;12.77;11.47;;;8.40;99.90;;;;;;4979028;28;20479;-63
2022/09/30 05:44:42;;;;;;;18.33;12.00;;;8.40;99.90;;;;;;4979105;28;20454;-65
2022/09/30 05:47:10;;;;;;;30.53;11.93;;;8.40;99.90;;;;;;4978869;28;20510;-64
2022/09/30 05:49:37;;;;;;;17.87;11.77;;;8.50;99.90;;;;;;4978791;28;20486;-63
2022/09/30 05:52:04;;;;;;;14.27;11.93;;;8.50;99.90;;;;;;4979178;28;20474;-62
2022/09/30 05:54:30;;;;;;;19.60;10.57;;;8.50;99.90;;;;;;4988384;28;20505;-62
2022/09/30 05:56:57;;;;;;;25.03;11.77;;;8.60;99.90;;;;;;4992381;28;20455;-63
2022/09/30 05:59:25;;;;;;;42.00;12.47;;;8.60;99.90;;;;;;4986605;28;20508;-63
2022/09/30 06:01:53;;;;;;;40.93;12.87;;;8.70;99.90;;;;;;4978236;28;20996;-63
2022/09/30 06:04:20;;;;;;;15.10;10.93;;;8.70;99.90;;;;;;4978350;28;20486;-63
2022/09/30 06:06:47;;;;;;;11.20;10.30;;;8.70;99.90;;;;;;4978153;28;20885;-63
2022/09/30 06:09:14;;;;;;;11.57;10.77;;;8.70;99.90;;;;;;4977911;28;20920;-62
2022/09/30 06:11:41;;;;;;;9.87;9.17;;;8.70;99.90;;;;;;4978275;28;20529;-63
2022/09/30 06:14:08;;;;;;;8.93;8.30;;;8.70;99.90;;;;;;4978194;28;20478;-63
2022/09/30 06:16:35;;;;;;;9.23;8.63;;;8.80;99.90;;;;;;4978058;28;20514;-64
2022/09/30 06:19:02;;;;;;;12.13;11.10;;;8.90;99.90;;;;;;4977881;28;20454;-63
2022/09/30 06:21:29;;;;;;;12.23;11.23;;;9.00;99.90;;;;;;4977703;28;20478;-62
2022/09/30 06:23:56;;;;;;;15.97;14.37;;;9.20;99.90;;;;;;4979035;28;20869;-62
2022/09/30 06:26:23;;;;;;;13.50;12.33;;;9.40;99.90;;;;;;4978209;28;20459;-63
2022/09/30 06:28:50;;;;;;;13.50;10.70;;;9.80;99.90;;;;;;4977616;28;20804;-62
2022/09/30 06:31:17;;;;;;;10.80;9.70;;;10.50;99.90;;;;;;4977234;28;20534;-63
2022/09/30 06:33:44;;;;;;;10.23;9.33;;;11.20;99.90;;;;;;4977583;28;20478;-62
2022/09/30 06:36:12;;;;;;;8.33;7.60;;;12.00;99.90;;;;;;4977582;28;20554;-63
2022/09/30 06:38:39;;;;;;;10.10;9.30;;;12.70;99.90;;;;;;4977518;28;20461;-63
2022/09/30 06:41:06;;;;;;;9.00;8.30;;;13.20;99.90;;;;;;4977344;28;20561;-63
2022/09/30 06:43:33;;;;;;;9.93;9.13;;;13.60;99.90;;;;;;4978103;28;20480;-63
2022/09/30 06:46:00;;;;;;;10.10;9.20;;;14.00;99.90;;;;;;4977438;28;20454;-62
2022/09/30 06:48:28;;;;;;;10.47;9.40;;;14.10;99.90;;;;;;4977956;28;20463;-63
2022/09/30 06:50:58;;;;;;;12.07;10.77;;;13.90;99.90;;;;;;4977318;28;20510;-63
2022/09/30 06:53:27;;;;;;;11.63;10.60;;;13.60;99.90;;;;;;4977245;28;20478;-62
2022/09/30 06:55:56;;;;;;;49.27;11.83;;;13.30;99.90;;;;;;4977154;28;20455;-63
2022/09/30 06:58:23;;;;;;;22.03;11.77;;;13.10;99.90;;;;;;4977136;28;20462;-63
2022/09/30 07:00:56;;;;;;;13.30;11.17;;;12.70;99.90;;;;;;4976899;28;20491;-63
2022/09/30 07:03:27;;;;;;;12.37;11.20;;;12.60;99.90;;;;;;4976711;28;20925;-63
2022/09/30 07:05:58;;;;;;;16.77;11.30;;;12.40;99.90;;;;;;4978637;28;20441;-63
2022/09/30 07:08:30;;;;;;;15.63;11.47;;;12.30;99.90;;;;;;4977803;28;20856;-62
2022/09/30 07:10:57;;;;;;;47.73;13.37;;;12.00;99.90;;;;;;4977252;28;20569;-62
2022/09/30 07:13:24;;;;;;;19.27;13.33;;;11.70;99.90;;;;;;4977526;28;20506;-63
2022/09/30 07:15:52;;;;;;;39.13;12.70;;;11.50;99.90;;;;;;4977255;28;20458;-62
2022/09/30 07:18:19;;;;;;;83.67;15.00;;;11.30;99.90;;;;;;4977031;28;20459;-62
2022/09/30 07:20:50;;;;;;;24.37;14.97;;;11.00;99.90;;;;;;4976820;28;20822;-63
2022/09/30 07:23:17;;;;;;;85.50;16.53;;;10.90;99.90;;;;;;4976951;28;20450;-62
2022/09/30 07:25:53;;;;;;;34.03;15.20;;;10.70;99.90;;;;;;4976844;28;20455;-63
2022/09/30 07:28:20;;;;;;;32.07;13.90;;;10.60;99.90;;;;;;4984689;28;20553;-62
2022/09/30 07:30:47;;;;;;;30.80;14.20;;;10.70;99.90;;;;;;4989424;28;20470;-62
2022/09/30 07:33:15;;;;;;;16.93;12.70;;;10.80;99.90;;;;;;4985465;28;20860;-62
2022/09/30 07:35:49;;;;;;;34.40;14.60;;;10.80;99.90;;;;;;4976715;28;20541;-62
2022/09/30 07:38:16;;;;;;;15.60;13.10;;;10.80;99.90;;;;;;4976069;28;20906;-62
2022/09/30 07:40:53;;;;;;;19.73;12.70;;;10.80;99.90;;;;;;4976194;28;20479;-63
2022/09/30 07:43:20;;;;;;;14.10;12.70;;;10.90;99.90;;;;;;4976422;28;20457;-62
2022/09/30 07:45:47;;;;;;;21.87;12.33;;;11.00;99.90;;;;;;4976489;28;20478;-63
2022/09/30 07:48:41;;;;;;;14.90;11.97;;;11.20;99.90;;;;;;4976309;28;20462;-63
2022/09/30 07:51:09;;;;;;;13.00;11.70;;;11.30;99.90;;;;;;4976170;28;20838;-63
2022/09/30 07:53:36;;;;;;;15.50;12.17;;;11.50;99.90;;;;;;4976173;28;20479;-63
2022/09/30 07:56:05;;;;;;;42.80;14.00;;;11.40;99.90;;;;;;4976246;28;20481;-63
2022/09/30 07:58:32;;;;;;;13.90;12.80;;;11.30;99.90;;;;;;4976307;28;20505;-63
2022/09/30 08:00:59;;;;;;;14.60;13.23;;;11.10;99.90;;;;;;4981088;28;20564;-62
2022/09/30 08:03:26;;;;;;;14.67;13.47;;;11.10;99.90;;;;;;4983456;28;20510;-62
2022/09/30 08:05:52;;;;;;;13.80;12.70;;;11.20;99.90;;;;;;4982823;28;20507;-62
2022/09/30 08:08:19;;;;;;;15.73;14.23;;;11.30;99.90;;;;;;4981392;28;20505;-63
2022/09/30 08:10:46;;;;;;;17.70;15.90;;;11.30;99.90;;;;;;4977389;28;20482;-63
2022/09/30 08:13:15;;;;;;;18.03;15.50;;;11.30;99.90;;;;;;4977726;28;20835;-63
2022/09/30 08:15:42;;;;;;;14.67;13.30;;;11.30;99.90;;;;;;4979757;28;20458;-63
2022/09/30 08:18:08;;;;;;;15.33;14.00;;;11.40;99.90;;;;;;4976070;28;20459;-63
2022/09/30 08:20:35;;;;;;;16.10;14.70;;;11.40;99.90;;;;;;4975698;28;20812;-63
2022/09/30 08:23:02;;;;;;;16.80;15.30;;;11.40;99.90;;;;;;4975643;28;20532;-63
2022/09/30 08:25:28;;;;;;;17.90;16.30;;;11.50;99.90;;;;;;4975632;28;20506;-63
2022/09/30 08:27:55;;;;;;;17.73;16.23;;;11.50;99.90;;;;;;4975796;28;20462;-63
2022/09/30 08:30:23;;;;;;;16.37;15.07;;;11.60;99.90;;;;;;4975475;28;20458;-63
2022/09/30 08:32:50;;;;;;;16.20;14.90;;;11.70;99.90;;;;;;4975775;28;20463;-63
2022/09/30 08:35:16;;;;;;;15.87;14.57;;;11.80;99.90;;;;;;4975606;28;20479;-63
2022/09/30 08:37:43;;;;;;;15.50;14.00;;;12.00;99.90;;;;;;4975544;28;20462;-62
2022/09/30 08:40:19;;;;;;;14.63;13.43;;;12.20;99.90;;;;;;4975805;28;20528;-63
2022/09/30 08:43:04;;;;;;;14.43;13.10;;;12.50;99.90;;;;;;4975422;28;20798;-62
2022/09/30 08:45:40;;;;;;;15.10;13.80;;;12.90;99.90;;;;;;4975662;28;20558;-63
2022/09/30 08:48:22;;;;;;;14.80;13.50;;;13.60;99.90;;;;;;4975598;28;20804;-63
2022/09/30 08:50:57;;;;;;;13.90;12.80;;;14.10;99.90;;;;;;4975408;28;20515;-63
2022/09/30 08:53:29;;;;;;;14.70;13.03;;;14.80;99.90;;;;;;4975703;28;20485;-62
2022/09/30 08:56:01;;;;;;;15.10;13.77;;;15.40;99.90;;;;;;4975013;28;20914;-63
2022/09/30 08:58:30;;;;;;;14.93;13.63;;;16.10;99.90;;;;;;4975977;28;20443;-63
2022/09/30 09:01:05;;;;;;;14.77;13.37;;;16.80;99.90;;;;;;4975486;28;20486;-63
2022/09/30 09:03:33;;;;;;;16.50;14.83;;;17.60;99.90;;;;;;4975432;28;20489;-63
2022/09/30 09:06:15;;;;;;;14.20;12.80;;;18.30;99.90;;;;;;4975831;28;20450;-63
2022/09/30 09:08:58;;;;;;;17.00;13.97;;;19.40;99.90;;;;;;4976202;28;20438;-63
2022/09/30 09:11:38;;;;;;;13.37;12.27;;;20.60;99.90;;;;;;4977761;28;20490;-63
2022/09/30 09:14:10;;;;;;;15.10;13.70;;;21.70;99.90;;;;;;4992610;28;20466;-63
2022/09/30 09:16:46;;;;;;;14.70;13.43;;;22.20;99.90;;;;;;4987771;28;20494;-64
2022/09/30 09:19:16;;;;;;;16.53;13.43;;;22.50;97.50;;;;;;4975724;28;20442;-63
2022/09/30 09:21:52;;;;;;;14.13;12.80;;;22.80;97.10;;;;;;4975092;28;20822;-63
2022/09/30 09:24:22;;;;;;;14.23;12.93;;;23.50;95.50;;;;;;4975285;28;20436;-63
2022/09/30 09:26:51;;;;;;;13.67;12.47;;;24.20;94.30;;;;;;4974865;28;20439;-63
2022/09/30 09:29:38;;;;;;;16.73;13.73;;;24.30;91.90;;;;;;4975118;28;20870;-63
2022/09/30 09:32:12;;;;;;;13.63;12.63;;;24.40;91.00;;;;;;4975249;28;20533;-64
2022/09/30 09:34:40;;;;;;;12.90;11.90;;;24.30;91.90;;;;;;4975145;28;20526;-62
2022/09/30 09:37:18;;;;;;;12.40;11.50;;;24.30;91.70;;;;;;4975086;28;20454;-63
2022/09/30 09:39:59;;;;;;;12.43;11.43;;;24.10;91.50;;;;;;4975068;28;20445;-63
2022/09/30 09:42:58;;;;;;;11.67;10.70;;;24.40;90.60;;;;;;4974806;28;20970;-64
2022/09/30 09:45:31;;;;;;;11.23;10.40;;;24.70;90.00;;;;;;4974813;28;20862;-63
2022/09/30 09:48:00;;;;;;;10.90;10.10;;;24.90;86.90;;;;;;4974924;28;20439;-63
2022/09/30 09:50:38;;;;;;;11.07;10.03;;;25.10;85.50;;;;;;4974557;28;20461;-64
2022/09/30 09:53:17;;;;;;;9.20;8.50;;;25.30;85.50;;;;;;4974894;28;20447;-64
2022/09/30 09:55:44;;;;;;;8.77;7.97;;;25.30;83.40;;;;;;4958993;28;20470;-64
2022/09/30 09:58:13;;;;;;;8.83;8.23;;;24.70;81.90;;;;;;4974660;28;20458;-64
2022/09/30 10:03:27;;;;;;;8.57;8.00;;;23.50;84.20;;;;;;4974570;28;20550;-64
2022/09/30 10:06:03;;;;;;;10.33;9.40;;;23.60;88.60;;;;;;4976717;28;20817;-64
2022/09/30 10:08:32;;;;;;;8.07;7.43;;;24.00;83.30;;;;;;4978266;28;20438;-63
2022/09/30 10:11:00;;;;;;;7.07;6.50;;;24.30;84.00;;;;;;4978431;28;20478;-65
2022/09/30 10:13:30;;;;;;;8.03;7.53;;;24.80;81.40;;;;;;4978404;28;20458;-64
2022/09/30 10:15:59;;;;;;;7.17;6.67;;;25.30;78.30;;;;;;4977998;28;20505;-64
2022/09/30 10:18:29;;;;;;;8.13;7.53;;;25.50;75.80;;;;;;4977930;28;20504;-63
2022/09/30 10:20:58;;;;;;;7.57;6.73;;;25.50;78.80;;;;;;4977887;28;20525;-63
2022/09/30 10:23:31;;;;;;;5.20;4.90;;;25.90;73.80;;;;;;4978177;28;20509;-63
2022/09/30 10:26:04;;;;;;;5.13;4.70;;;26.60;67.30;;;;;;4978545;28;20454;-64
2022/09/30 10:28:34;;;;;;;5.67;5.27;;;27.00;68.30;;;;;;4978666;28;20809;-64
2022/09/30 10:31:04;;;;;;;6.30;5.90;;;27.50;66.90;;;;;;4978346;28;20478;-64
2022/09/30 10:33:36;;;;;;;7.83;7.23;;;27.60;66.70;;;;;;4978429;28;20438;-63
2022/09/30 10:36:09;;;;;;;7.40;6.90;;;27.70;68.50;;;;;;4977997;28;20436;-64
2022/09/30 10:38:37;;;;;;;7.57;6.80;;;27.50;68.40;;;;;;4977903;28;20439;-64
2022/09/30 10:41:05;;;;;;;6.83;6.43;;;27.20;70.70;;;;;;4977817;28;20475;-64
2022/09/30 10:43:38;;;;;;;9.20;8.33;;;26.70;69.80;;;;;;4977936;28;20579;-63
2022/09/30 10:46:05;;;;;;;9.00;8.23;;;26.40;71.50;;;;;;4977829;28;20489;-63
2022/09/30 10:48:36;;;;;;;8.10;7.30;;;26.40;71.00;;;;;;4978041;28;20451;-62
2022/09/30 10:51:03;;;;;;;6.37;5.87;;;26.40;69.60;;;;;;4991944;28;20991;-64
2022/09/30 10:53:34;;;;;;;4.17;3.97;;;26.40;66.20;;;;;;4993727;28;20478;-63
2022/09/30 10:56:04;;;;;;;5.87;5.47;;;26.00;63.20;;;;;;4984176;28;20595;-63
2022/09/30 10:58:44;;;;;;;6.53;6.03;;;25.70;65.00;;;;;;4978066;28;20503;-63
2022/09/30 11:01:23;;;;;;;7.67;7.07;;;25.50;68.30;;;;;;4977637;28;20486;-65
2022/09/30 11:04:03;;;;;;;7.63;7.03;;;24.90;69.80;;;;;;4977945;28;20497;-65
2022/09/30 11:06:32;;;;;;;7.27;6.67;;;24.30;71.30;;;;;;4977836;28;20445;-63
2022/09/30 11:09:05;;;;;;;6.50;6.00;;;23.70;73.00;;;;;;4977360;28;20481;-63
2022/09/30 11:11:38;;;;;;;6.10;5.53;;;23.30;71.50;;;;;;4976996;28;20893;-64
2022/09/30 11:14:19;;;;;;;5.83;5.30;;;23.10;74.30;;;;;;4976831;28;20490;-64
2022/09/30 11:16:52;;;;;;;5.43;5.03;;;22.70;74.70;;;;;;4975685;28;20841;-63
2022/09/30 11:19:28;;;;;;;6.50;5.90;;;22.40;73.40;;;;;;4976984;28;20914;-63
2022/09/30 11:22:00;;;;;;;7.30;6.70;;;22.10;75.50;;;;;;4976809;28;20581;-63
2022/09/30 11:24:34;;;;;;;7.70;6.00;;;21.60;77.90;;;;;;4976920;28;20436;-64
2022/09/30 11:27:08;;;;;;;6.30;5.70;;;21.40;78.80;;;;;;4976369;28;20915;-63
2022/09/30 11:29:57;;;;;;;5.53;5.00;;;21.30;78.00;;;;;;4976833;28;20435;-63
2022/09/30 11:32:37;;;;;;;6.90;5.13;;;21.20;76.10;;;;;;4976778;28;20471;-64
2022/09/30 11:35:19;;;;;;;6.13;5.60;;;21.10;77.40;;;;;;4976605;28;20541;-63
2022/09/30 11:38:04;;;;;;;5.90;5.37;;;21.00;77.30;;;;;;4976443;28;20490;-63
2022/09/30 11:40:37;;;;;;;6.40;5.90;;;20.80;78.80;;;;;;4976099;28;20853;-64
2022/09/30 11:43:19;;;;;;;5.00;4.60;;;21.00;82.50;;;;;;4976320;28;20439;-63
2022/09/30 11:46:04;;;;;;;3.93;3.63;;;21.20;78.30;;;;;;4976377;28;20493;-63
2022/09/30 11:48:41;;;;;;;3.60;3.40;;;21.30;79.30;;;;;;4976340;28;20443;-63
2022/09/30 11:51:19;;;;;;;3.83;3.63;;;21.40;71.30;;;;;;4976321;28;20533;-64
2022/09/30 11:53:58;;;;;;;4.13;3.87;;;21.50;72.60;;;;;;4976066;28;20918;-62
2022/09/30 11:56:38;;;;;;;3.77;3.50;;;21.50;72.00;;;;;;4976890;28;20435;-63
2022/09/30 11:59:12;;;;;;;5.00;3.47;;;21.50;73.80;;;;;;4976153;28;20442;-63
2022/09/30 12:01:44;;;;;;;3.90;3.60;;;21.20;71.10;;;;;;4975950;28;20895;-62
2022/09/30 12:04:18;;;;;;;3.03;2.83;;;20.90;77.50;;;;;;4976059;28;20474;-63
2022/09/30 12:06:50;;;;;;;3.53;3.23;;;21.00;74.30;;;;;;4976452;28;20439;-62
2022/09/30 12:09:22;;;;;;;3.77;2.90;;;21.00;74.90;;;;;;4976191;28;20495;-63
2022/09/30 12:11:54;;;;;;;4.10;3.30;;;21.20;73.70;;;;;;4977118;28;20475;-63
2022/09/30 12:14:28;;;;;;;3.67;3.37;;;21.30;72.30;;;;;;4976934;28;20446;-63
2022/09/30 12:16:56;;;;;;;5.00;3.77;;;21.20;70.20;;;;;;4976875;28;20439;-63
2022/09/30 12:19:28;;;;;;;3.33;3.10;;;21.20;79.10;;;;;;4978595;28;20555;-63
2022/09/30 12:22:03;;;;;;;3.37;3.07;;;21.30;73.90;;;;;;4986730;28;20470;-63
2022/09/30 12:24:35;;;;;;;3.17;2.93;;;21.40;74.80;;;;;;4985730;28;20462;-63
2022/09/30 12:27:03;;;;;;;3.10;2.80;;;21.30;74.30;;;;;;4979930;28;20526;-63
2022/09/30 12:32:55;;;;;;;2.47;2.37;;;21.40;70.70;;;;;;4975930;28;20478;-62
2022/09/30 12:35:39;;;;;;;2.60;2.40;;;21.50;72.20;;;;;;4972712;28;20521;-63
2022/09/30 12:38:24;;;;;;;2.50;2.30;;;21.60;70.50;;;;;;4976233;28;20545;-63
2022/09/30 12:41:01;;;;;;;2.00;1.90;;;21.60;77.70;;;;;;4975695;28;20485;-64
2022/09/30 12:43:50;;;;;;;2.97;2.07;;;21.50;67.20;;;;;;4976167;28;20537;-63
2022/09/30 12:46:28;;;;;;;4.00;2.20;;;21.70;68.00;;;;;;4976210;28;20525;-63
2022/09/30 12:49:00;;;;;;;2.70;1.77;;;21.90;66.50;;;;;;4976047;28;20910;-63
2022/09/30 12:51:30;;;;;;;2.30;1.67;;;21.90;66.20;;;;;;4975919;28;20511;-63
2022/09/30 12:54:04;;;;;;;1.90;1.80;;;22.00;67.00;;;;;;4976225;28;20834;-63
2022/09/30 12:56:32;;;;;;;3.30;2.30;;;21.70;69.20;;;;;;4976381;28;20959;-63
2022/09/30 12:59:00;;;;;;;3.27;2.10;;;21.90;71.80;;;;;;4976441;28;20454;-64
2022/09/30 13:01:29;;;;;;;2.67;2.40;;;21.90;73.40;;;;;;4983019;28;20478;-63
2022/09/30 13:04:17;;;;;;;3.20;1.80;;;21.90;65.90;;;;;;4994095;28;20478;-63
2022/09/30 13:07:12;;;;;;;4.43;2.23;;;22.00;67.50;;;;;;4992161;28;20509;-64
2022/09/30 13:10:00;;;;;;;2.20;1.93;;;21.80;67.20;;;;;;4970217;28;20861;-63
2022/09/30 13:12:40;;;;;;;2.47;2.07;;;21.90;70.10;;;;;;4977873;28;20471;-64
2022/09/30 13:15:38;;;;;;;2.97;1.50;;;21.80;64.50;;;;;;4988399;28;20494;-63
2022/09/30 13:18:39;;;;;;;1.87;1.73;;;21.70;63.40;;;;;;4981424;28;20463;-63
2022/09/30 13:21:24;;;;;;;1.43;1.33;;;21.40;64.50;;;;;;4974943;28;20481;-63
2022/09/30 13:23:52;;;;;;;1.57;1.40;;;21.00;66.00;;;;;;4975337;28;20450;-63
2022/09/30 13:26:44;;;;;;;3.60;1.57;;;20.80;65.90;;;;;;4975205;28;20446;-63
2022/09/30 13:29:37;;;;;;;2.30;1.47;;;20.60;64.70;;;;;;4972952;28;20542;-63
2022/09/30 13:32:05;;;;;;;1.50;1.40;;;20.40;64.90;;;;;;4974897;28;20969;-62
2022/09/30 13:34:35;;;;;;;1.27;1.17;;;20.20;67.20;;;;;;4974999;28;20454;-63
2022/09/30 13:37:03;;;;;;;2.60;1.50;;;20.20;68.30;;;;;;4974881;28;20954;-63
2022/09/30 13:39:31;;;;;;;1.53;1.40;;;20.00;67.30;;;;;;4974752;28;20884;-64
2022/09/30 13:42:14;;;;;;;1.80;1.40;;;19.90;66.20;;;;;;4978345;28;20479;-63
2022/09/30 13:44:56;;;;;;;2.30;1.80;;;19.90;70.90;;;;;;4982799;28;20493;-64
2022/09/30 13:47:29;;;;;;;1.57;1.50;;;19.80;66.90;;;;;;4999636;28;20438;-63
2022/09/30 13:50:01;;;;;;;1.90;1.80;;;19.70;66.40;;;;;;5000150;28;20466;-64
2022/09/30 13:52:31;;;;;;;1.47;1.47;;;19.60;63.90;;;;;;4998138;28;20961;-64
2022/09/30 13:55:02;;;;;;;2.63;1.90;;;19.60;67.90;;;;;;4999333;28;20466;-64
2022/09/30 13:57:37;;;;;;;2.83;1.80;;;19.50;65.80;;;;;;4983744;28;20473;-64
2022/09/30 14:00:12;;;;;;;2.33;1.37;;;19.50;68.20;;;;;;4978614;28;20521;-64
2022/09/30 14:03:02;;;;;;;1.60;1.50;;;19.40;70.20;;;;;;4979335;28;20434;-63
2022/09/30 14:05:58;;;;;;;1.63;1.53;;;19.30;70.30;;;;;;4978941;28;20442;-63
2022/09/30 14:08:49;;;;;;;1.80;1.70;;;19.20;77.30;;;;;;4978371;28;20443;-63
2022/09/30 14:11:34;;;;;;;1.60;1.50;;;19.20;78.40;;;;;;4969366;28;20548;-63
2022/09/30 14:14:21;;;;;;;2.93;1.70;;;19.00;77.80;;;;;;4978222;28;20443;-63
2022/09/30 14:17:16;;;;;;;1.97;1.83;;;19.00;77.70;;;;;;4977747;28;20961;-64
2022/09/30 14:20:01;;;;;;;1.80;1.70;;;18.80;76.60;;;;;;4976892;28;20458;-62
2022/09/30 14:22:28;;;;;;;2.00;1.70;;;18.70;77.90;;;;;;4978246;28;20474;-64
2022/09/30 14:24:56;;;;;;;2.20;1.90;;;18.70;77.50;;;;;;4978544;28;20457;-63
2022/09/30 14:27:49;;;;;;;2.00;1.80;;;18.50;75.90;;;;;;4978279;28;20457;-63
2022/09/30 14:30:20;;;;;;;1.47;1.37;;;18.30;76.50;;;;;;4977997;28;20450;-63
2022/09/30 14:32:50;;;;;;;1.60;1.47;;;18.20;78.90;;;;;;4978980;28;20833;-63
2022/09/30 14:35:19;;;;;;;1.90;1.80;;;18.20;73.50;;;;;;4978033;28;20478;-63
2022/09/30 14:37:50;;;;;;;1.53;1.43;;;18.10;79.40;;;;;;4978541;28;20462;-63
2022/09/30 14:40:20;;;;;;;2.90;1.50;;;18.20;78.50;;;;;;4978662;28;20443;-63
2022/09/30 14:42:48;;;;;;;3.43;1.53;;;18.30;74.50;;;;;;4977988;28;20934;-63
2022/09/30 14:45:25;;;;;;;1.47;1.40;;;18.40;75.00;;;;;;4977679;28;20455;-63
2022/09/30 14:47:54;;;;;;;2.47;1.47;;;18.30;75.50;;;;;;4977576;28;20445;-63
2022/09/30 14:50:24;;;;;;;2.30;1.50;;;18.40;74.50;;;;;;4978011;28;20454;-62
2022/09/30 14:52:56;;;;;;;1.83;1.50;;;18.30;75.60;;;;;;4977580;28;20493;-63
2022/09/30 14:55:27;;;;;;;1.80;1.70;;;18.30;79.00;;;;;;4977791;28;20551;-64
2022/09/30 14:57:57;;;;;;;1.73;1.63;;;18.10;77.50;;;;;;4979020;28;20435;-63
2022/09/30 15:00:31;;;;;;;3.50;2.00;;;18.10;76.20;;;;;;4978822;28;20482;-64
2022/09/30 15:02:59;;;;;;;3.73;2.13;;;18.20;76.90;;;;;;4977411;28;20906;-63
2022/09/30 15:05:26;;;;;;;1.80;1.70;;;18.10;84.30;;;;;;4977463;28;20807;-63
2022/09/30 15:07:54;;;;;;;2.93;1.77;;;18.00;84.40;;;;;;4977761;28;20487;-63
2022/09/30 15:10:23;;;;;;;2.53;1.97;;;18.00;84.50;;;;;;4980779;28;20461;-63
2022/09/30 15:12:51;;;;;;;2.87;1.90;;;18.10;80.30;;;;;;4993877;28;20485;-62
2022/09/30 15:15:31;;;;;;;2.20;2.00;;;18.10;81.60;;;;;;4992303;28;20485;-62
2022/09/30 15:18:01;;;;;;;2.57;2.37;;;18.10;84.80;;;;;;4990612;28;20466;-63
2022/09/30 15:20:31;;;;;;;2.67;2.47;;;18.10;89.40;;;;;;4992347;28;20517;-63
2022/09/30 15:23:02;;;;;;;3.07;2.80;;;18.00;90.10;;;;;;4991433;28;20450;-63
2022/09/30 15:25:30;;;;;;;3.47;3.13;;;17.90;89.70;;;;;;4991003;28;20431;-63
2022/09/30 15:27:56;;;;;;;4.37;3.07;;;17.80;90.00;;;;;;4978944;28;20957;-63
2022/09/30 15:30:27;;;;;;;3.27;3.00;;;17.70;90.10;;;;;;4976757;28;20435;-63
2022/09/30 15:33:01;;;;;;;6.03;3.17;;;17.60;90.40;;;;;;4976437;28;20454;-64
2022/09/30 15:35:29;;;;;;;3.47;3.23;;;17.50;92.40;;;;;;4976577;28;20497;-64
2022/09/30 15:38:08;;;;;;;3.33;2.60;;;17.50;92.30;;;;;;4976191;28;20942;-63
2022/09/30 15:40:48;;;;;;;3.37;3.17;;;17.40;92.10;;;;;;4976742;28;20578;-63
2022/09/30 15:43:29;;;;;;;3.10;2.83;;;17.40;93.10;;;;;;4976559;28;20466;-62
2022/09/30 15:45:57;;;;;;;2.70;2.50;;;17.30;92.50;;;;;;4976676;28;20430;-63
2022/09/30 15:48:35;;;;;;;3.63;3.33;;;17.20;93.40;;;;;;4976509;28;20461;-63
2022/09/30 15:51:24;;;;;;;3.40;3.20;;;17.20;91.00;;;;;;4981660;28;20478;-63
2022/09/30 15:53:51;;;;;;;3.03;2.83;;;17.10;92.70;;;;;;4982456;28;20447;-63
2022/09/30 15:56:25;;;;;;;3.60;3.30;;;17.10;94.30;;;;;;4976553;28;20589;-62
2022/09/30 15:58:56;;;;;;;3.93;3.43;;;17.10;93.60;;;;;;4978650;28;20449;-63
2022/09/30 16:01:25;;;;;;;4.27;3.27;;;17.10;94.00;;;;;;4976486;28;21053;-62
2022/09/30 16:03:55;;;;;;;3.00;2.70;;;17.00;93.40;;;;;;4977884;28;20476;-63
2022/09/30 16:06:26;;;;;;;2.73;2.60;;;17.00;93.30;;;;;;4977999;28;20482;-63
2022/09/30 16:09:00;;;;;;;3.20;2.90;;;17.00;93.70;;;;;;4977156;28;20450;-63
2022/09/30 16:11:30;;;;;;;4.40;3.07;;;17.00;93.70;;;;;;4976429;28;20581;-63
2022/09/30 16:13:59;;;;;;;3.87;3.00;;;17.00;94.50;;;;;;4976103;28;20443;-63
2022/09/30 16:16:27;;;;;;;2.90;2.70;;;16.90;95.60;;;;;;4977165;28;20533;-63
2022/09/30 16:18:58;;;;;;;3.00;2.40;;;16.80;94.50;;;;;;4975577;28;20497;-63
2022/09/30 16:21:39;;;;;;;5.07;2.57;;;16.80;95.20;;;;;;4976265;28;20537;-62
2022/09/30 16:24:31;;;;;;;2.83;2.40;;;16.70;96.10;;;;;;4976323;28;20443;-62
2022/09/30 16:27:15;;;;;;;2.87;2.67;;;16.70;96.50;;;;;;4974976;28;20931;-63
2022/09/30 16:29:42;;;;;;;3.00;2.80;;;16.60;97.00;;;;;;4975761;28;20843;-63
2022/09/30 16:32:09;;;;;;;2.50;2.40;;;16.50;97.20;;;;;;4976464;28;20482;-63
2022/09/30 16:34:38;;;;;;;2.77;2.50;;;16.40;98.20;;;;;;4976157;28;20458;-63
2022/09/30 16:37:11;;;;;;;3.10;2.63;;;16.30;99.00;;;;;;4976024;28;20536;-63
2022/09/30 16:39:37;;;;;;;3.17;2.73;;;16.20;99.90;;;;;;4979276;28;20906;-63
2022/09/30 16:42:04;;;;;;;2.90;2.70;;;16.10;99.90;;;;;;4979639;28;20514;-63
2022/09/30 16:44:33;;;;;;;3.00;2.70;;;16.10;99.90;;;;;;4978780;28;20443;-63
2022/09/30 16:46:59;;;;;;;3.03;2.70;;;16.00;99.90;;;;;;4975276;28;20462;-63
2022/09/30 16:49:27;;;;;;;2.90;2.70;;;15.90;99.90;;;;;;4975428;28;20988;-62
2022/09/30 16:51:55;;;;;;;3.70;3.00;;;15.80;99.90;;;;;;4975738;28;20478;-63
2022/09/30 16:54:21;;;;;;;4.67;3.20;;;15.70;99.90;;;;;;4975578;28;20458;-63
2022/09/30 16:56:48;;;;;;;3.27;3.07;;;15.60;99.90;;;;;;4977919;28;20506;-64
2022/09/30 16:59:17;;;;;;;3.37;3.03;;;15.50;99.90;;;;;;4975254;28;20946;-63
2022/09/30 17:01:44;;;;;;;3.20;2.70;;;15.40;99.90;;;;;;4975084;28;20482;-63
2022/09/30 17:04:11;;;;;;;3.07;2.87;;;15.30;99.90;;;;;;4975974;28;20860;-63
2022/09/30 17:06:38;;;;;;;3.50;3.20;;;15.20;99.90;;;;;;4975633;28;20836;-63
2022/09/30 17:09:06;;;;;;;5.20;3.37;;;15.10;99.90;;;;;;4975197;28;20517;-63
2022/09/30 17:11:34;;;;;;;3.20;2.90;;;15.00;99.90;;;;;;4975129;28;20485;-63